Time;durP1;ratioP1;P1;durP2;ratioP2;P2;SDS_P1;SDS_P2;PMS_P1;PMS_P2;Temp;Humidity;BMP_temperature;BMP_pressure;BME280_temperature;BME280_humidity;BME280_pressure;Samples;Min_cycle;Max_cycle;Signal;HPM_P1;HPM_P2
2021/03/15 00:00:58;;;;;;;3.60;2.50;;;3.70;70.80;;;3.09;54.56;94290.47;5071118;28;20709;-80
2021/03/15 00:03:26;;;;;;;2.42;2.20;;;3.70;70.70;;;3.15;54.57;94293.25;5087978;28;20199;-81
2021/03/15 00:05:57;;;;;;;6.80;3.00;;;3.80;70.70;;;3.20;53.93;94285.78;5071098;28;20225;-80
2021/03/15 00:08:25;;;;;;;5.45;2.63;;;3.90;70.70;;;3.23;54.47;94289.84;5054402;28;20237;-81
2021/03/15 00:10:52;;;;;;;3.47;2.50;;;3.90;70.70;;;3.32;54.36;94293.22;5054242;28;20693;-80
2021/03/15 00:13:20;;;;;;;4.47;2.53;;;4.00;70.70;;;3.38;54.22;94291.78;5054657;28;20284;-80
2021/03/15 00:15:49;;;;;;;3.47;2.38;;;4.00;70.50;;;3.42;53.98;94291.31;5071145;28;20681;-80
2021/03/15 00:18:17;;;;;;;3.63;2.75;;;4.10;70.60;;;3.46;54.29;94286.59;5087806;28;20191;-81
2021/03/15 00:20:45;;;;;;;3.47;2.50;;;4.10;70.50;;;3.50;53.76;94291.31;5053819;28;20705;-80
2021/03/15 00:23:13;;;;;;;4.28;2.70;;;4.20;70.40;;;3.54;53.88;94289.19;5070995;28;20650;-80
2021/03/15 00:25:41;;;;;;;3.75;2.78;;;4.20;70.40;;;3.57;53.97;94288.06;5070874;28;20204;-79
2021/03/15 00:28:08;;;;;;;2.83;2.30;;;4.20;70.30;;;3.57;53.67;94288.84;5071120;28;20272;-80
2021/03/15 00:30:35;;;;;;;3.13;2.50;;;4.30;70.30;;;3.61;53.64;94281.56;5070965;28;20203;-80
2021/03/15 00:33:02;;;;;;;5.00;2.63;;;4.30;70.20;;;3.62;53.62;94281.38;5054589;28;20298;-81
2021/03/15 00:35:31;;;;;;;3.10;2.30;;;4.30;70.20;;;3.62;53.85;94276.19;5070695;28;20620;-80
2021/03/15 00:37:58;;;;;;;3.35;2.42;;;4.30;70.10;;;3.64;53.64;94273.47;5071055;28;20195;-80
2021/03/15 00:40:25;;;;;;;4.80;2.55;;;4.40;70.10;;;3.64;53.42;94270.88;5070732;28;20199;-80
2021/03/15 00:42:59;;;;;;;3.05;2.22;;;4.40;70.10;;;3.64;53.69;94269.06;5087338;28;20191;-81
2021/03/15 00:45:26;;;;;;;4.43;2.47;;;4.40;70.10;;;3.63;54.31;94264.06;5070917;28;20200;-79
2021/03/15 00:47:54;;;;;;;3.50;2.60;;;4.40;70.20;;;3.64;53.98;94261.28;5070722;28;20265;-80
2021/03/15 00:50:41;;;;;;;3.53;2.50;;;4.40;70.20;;;3.65;53.83;94259.50;5070321;28;20192;-80
2021/03/15 00:53:13;;;;;;;3.15;2.45;;;4.50;70.30;;;3.62;53.86;94258.03;5071029;28;20290;-80
2021/03/15 00:55:40;;;;;;;4.18;2.70;;;4.40;70.10;;;3.63;54.02;94253.69;5070680;28;20197;-80
2021/03/15 00:58:06;;;;;;;3.58;2.25;;;4.50;70.20;;;3.62;53.85;94259.84;5057289;28;20261;-80
2021/03/15 01:00:38;;;;;;;3.17;2.33;;;4.40;70.20;;;3.67;53.47;94268.75;5074604;28;20227;-79
2021/03/15 01:03:18;;;;;;;4.10;2.45;;;4.40;70.30;;;3.67;53.93;94260.16;5074423;28;20199;-80
2021/03/15 01:05:56;;;;;;;4.50;2.42;;;4.40;70.20;;;3.72;53.64;94267.44;5074176;28;20790;-79
2021/03/15 01:08:42;;;;;;;4.38;2.40;;;4.50;70.30;;;3.73;54.11;94259.47;5060493;28;20290;-80
2021/03/15 01:11:16;;;;;;;3.22;2.33;;;4.50;70.30;;;3.77;54.04;94265.97;5090040;28;20211;-80
2021/03/15 01:13:52;;;;;;;3.42;2.40;;;4.50;70.30;;;3.81;54.18;94261.28;5074400;28;20238;-80
2021/03/15 01:16:26;;;;;;;2.47;2.28;;;4.70;70.50;;;3.85;53.69;94267.72;5074082;28;20747;-81
2021/03/15 01:18:54;;;;;;;3.17;2.40;;;4.60;70.40;;;3.87;53.70;94258.00;5074324;28;20704;-80
2021/03/15 01:21:21;;;;;;;3.53;2.78;;;4.60;70.40;;;3.92;53.93;94263.50;5056793;28;20235;-80
2021/03/15 01:23:47;;;;;;;3.45;2.20;;;4.60;70.40;;;3.91;54.03;94254.09;5057332;28;20207;-81
2021/03/15 01:26:14;;;;;;;3.45;2.30;;;4.70;70.50;;;3.99;53.54;94250.66;5073968;28;20207;-80
2021/03/15 01:28:41;;;;;;;2.95;2.30;;;4.60;70.40;;;3.99;53.70;94251.47;5073913;28;20557;-81
2021/03/15 01:31:07;;;;;;;3.97;2.55;;;4.70;70.30;;;4.04;53.47;94247.56;5073839;28;20239;-80
2021/03/15 01:33:35;;;;;;;3.78;2.55;;;4.70;70.30;;;4.07;53.41;94249.84;5074200;28;20290;-81
2021/03/15 01:36:01;;;;;;;4.03;2.63;;;4.80;70.40;;;4.08;53.63;94252.25;5056941;28;20239;-80
2021/03/15 01:38:28;;;;;;;2.95;2.55;;;4.80;70.30;;;4.10;53.50;94254.66;5073754;28;20211;-81
2021/03/15 01:40:54;;;;;;;4.82;2.72;;;4.80;70.30;;;4.13;53.30;94256.94;5056883;28;20254;-80
2021/03/15 01:43:21;;;;;;;3.72;2.47;;;4.80;70.30;;;4.13;53.57;94256.94;5090441;28;20560;-81
2021/03/15 01:45:48;;;;;;;5.03;2.70;;;4.80;70.20;;;4.14;53.31;94253.38;5073609;28;20216;-80
2021/03/15 01:48:15;;;;;;;3.13;2.33;;;4.80;70.20;;;4.16;53.30;94249.63;5073875;28;20199;-81
2021/03/15 01:50:49;;;;;;;3.42;2.50;;;4.80;70.20;;;4.16;53.37;94249.63;5073013;28;20326;-79
2021/03/15 01:53:18;;;;;;;2.92;2.38;;;4.90;70.40;;;4.17;53.48;94250.44;5073528;28;20183;-80
2021/03/15 01:55:47;;;;;;;4.00;2.42;;;4.90;70.20;;;4.16;53.34;94247.03;5073502;28;20215;-80
2021/03/15 01:58:14;;;;;;;3.63;2.55;;;4.90;70.20;;;4.19;53.44;94247.66;5073583;28;20199;-81
2021/03/15 02:00:44;;;;;;;3.63;2.47;;;4.90;70.30;;;4.19;53.38;94238.09;5089800;28;20673;-80
2021/03/15 02:03:16;;;;;;;2.90;2.53;;;4.90;71.10;;;4.18;53.49;94243.47;5073728;28;20210;-81
2021/03/15 02:05:43;;;;;;;3.95;2.60;;;4.90;70.20;;;4.17;53.50;94234.84;5072672;28;20216;-80
2021/03/15 02:08:10;;;;;;;3.47;2.55;;;5.00;70.30;;;4.21;53.43;94237.94;5073127;28;20286;-80
2021/03/15 02:10:38;;;;;;;4.38;2.67;;;5.10;70.40;;;4.18;53.56;94240.88;5073181;28;20654;-79
2021/03/15 02:13:28;;;;;;;4.47;2.80;;;4.90;71.10;;;4.19;53.72;94242.47;5055877;28;20569;-81
2021/03/15 02:16:15;;;;;;;5.32;3.10;;;4.90;70.40;;;4.18;53.65;94241.66;5073252;28;20612;-80
2021/03/15 02:19:22;;;;;;;3.30;3.00;;;5.00;70.50;;;4.16;54.19;94243.63;5073768;28;20191;-80
2021/03/15 02:22:42;;;;;;;3.40;2.72;;;5.00;70.50;;;4.12;53.80;94243.16;5057389;28;20227;-80
2021/03/15 02:26:05;;;;;;;4.22;3.03;;;5.00;70.50;;;4.09;55.11;94237.47;5081435;28;20277;-79
2021/03/15 02:28:47;;;;;;;4.38;2.80;;;5.00;70.60;;;4.07;54.71;94237.66;5049815;28;20677;-81
2021/03/15 02:31:35;;;;;;;4.05;3.28;;;5.00;70.70;;;4.08;54.59;94231.50;5047996;28;20219;-79
2021/03/15 02:34:45;;;;;;;3.05;2.75;;;4.90;71.50;;;4.07;54.72;94235.06;5050176;28;20711;-81
2021/03/15 02:37:19;;;;;;;4.57;3.10;;;4.90;70.70;;;4.06;54.87;94243.03;5063118;28;20758;-79
2021/03/15 02:39:51;;;;;;;4.35;3.10;;;4.90;70.80;;;4.07;55.17;94236.84;5030912;28;20682;-80
2021/03/15 02:42:19;;;;;;;3.63;2.63;;;4.90;70.90;;;4.10;54.79;94246.88;5044326;28;20462;-80
2021/03/15 02:44:50;;;;;;;3.83;3.00;;;4.90;70.80;;;4.10;55.00;94245.13;5053788;28;20199;-80
2021/03/15 02:47:27;;;;;;;4.03;3.05;;;4.90;70.90;;;4.09;54.76;94237.47;5060614;28;20291;-80
2021/03/15 02:50:04;;;;;;;5.38;3.05;;;4.90;70.90;;;4.12;54.67;94234.56;5045967;28;20202;-81
2021/03/15 02:52:31;;;;;;;4.55;3.40;;;4.90;71.00;;;4.09;54.71;94235.72;5045994;28;20251;-80
2021/03/15 02:55:01;;;;;;;4.78;3.33;;;5.00;70.90;;;4.14;54.61;94241.19;5051034;28;20262;-80
2021/03/15 02:57:30;;;;;;;3.92;2.85;;;5.00;70.90;;;4.16;54.45;94228.88;5048748;28;20346;-80
2021/03/15 02:59:58;;;;;;;3.53;3.03;;;5.00;70.70;;;4.19;54.55;94237.28;5048241;28;20658;-80
2021/03/15 03:02:26;;;;;;;4.38;3.08;;;4.90;70.70;;;4.13;54.34;94228.41;5015528;28;20231;-80
2021/03/15 03:04:54;;;;;;;4.45;2.83;;;4.90;70.70;;;4.19;54.39;94238.09;5050390;28;20204;-80
2021/03/15 03:07:22;;;;;;;3.33;2.97;;;5.00;70.70;;;4.19;54.31;94232.91;5048679;28;20307;-80
2021/03/15 03:09:49;;;;;;;3.13;2.80;;;5.00;70.70;;;4.18;54.15;94233.88;5046732;28;20198;-81
2021/03/15 03:12:18;;;;;;;5.03;3.10;;;5.00;70.60;;;4.20;53.92;94239.72;5017094;28;20224;-79
2021/03/15 03:14:47;;;;;;;3.75;3.15;;;4.90;70.60;;;4.19;54.07;94230.31;5051501;28;20195;-81
2021/03/15 03:17:15;;;;;;;2.90;2.50;;;5.00;70.60;;;4.19;53.84;94235.50;5038472;28;20254;-80
2021/03/15 03:19:45;;;;;;;5.65;3.03;;;5.00;70.60;;;4.18;54.22;94233.09;5071213;28;20225;-79
2021/03/15 03:22:14;;;;;;;3.85;3.15;;;5.00;70.60;;;4.16;54.38;94236.66;5049124;28;20744;-80
2021/03/15 03:24:43;;;;;;;6.25;3.65;;;4.90;70.50;;;4.16;54.41;94230.63;5049989;28;20192;-80
2021/03/15 03:27:13;;;;;;;4.07;3.30;;;5.00;70.60;;;4.11;54.38;94223.38;5050061;28;20247;-79
2021/03/15 03:29:43;;;;;;;5.70;3.08;;;5.00;70.70;;;4.13;54.28;94223.22;5016651;28;20203;-80
2021/03/15 03:32:11;;;;;;;3.63;3.13;;;4.90;70.60;;;4.11;54.12;94230.34;5049444;28;20237;-81
2021/03/15 03:34:40;;;;;;;2.80;2.60;;;4.90;70.50;;;4.12;54.18;94224.97;5016783;28;20207;-81
2021/03/15 03:37:08;;;;;;;3.20;2.67;;;4.90;70.60;;;4.12;54.47;94224.19;5016686;28;20285;-79
2021/03/15 03:39:35;;;;;;;4.22;3.13;;;5.00;70.70;;;4.11;54.34;94225.97;5049280;28;20716;-80
2021/03/15 03:42:02;;;;;;;6.00;3.05;;;5.00;70.70;;;4.10;54.17;94223.53;5033602;28;20223;-79
2021/03/15 03:44:29;;;;;;;4.53;2.97;;;4.90;70.60;;;4.09;54.84;94220.13;5046315;28;20195;-80
2021/03/15 03:46:56;;;;;;;3.50;3.20;;;4.90;70.60;;;4.05;54.92;94213.66;5064875;28;20227;-81
2021/03/15 03:49:22;;;;;;;3.60;2.90;;;4.90;70.70;;;4.06;54.41;94219.66;5052033;28;20226;-80
2021/03/15 03:52:08;;;;;;;4.00;2.67;;;4.90;70.60;;;4.04;54.56;94206.03;5060458;28;20227;-80
2021/03/15 03:54:49;;;;;;;4.43;3.10;;;4.90;70.70;;;4.05;54.67;94205.88;5045987;28;20608;-80
2021/03/15 03:57:30;;;;;;;3.17;2.88;;;4.90;70.70;;;4.05;54.49;94211.06;5033696;28;20752;-79
2021/03/15 04:00:07;;;;;;;4.20;2.78;;;4.90;70.80;;;4.03;54.47;94202.66;5051261;28;20649;-80
2021/03/15 04:02:49;;;;;;;2.65;2.38;;;4.90;70.70;;;4.07;54.45;94209.13;5036946;28;20642;-79
2021/03/15 04:05:27;;;;;;;3.92;3.25;;;4.90;70.70;;;4.07;54.19;94206.50;5074610;28;20645;-80
2021/03/15 04:08:23;;;;;;;3.28;2.70;;;4.90;70.80;;;4.05;54.25;94208.47;5062634;28;20269;-80
2021/03/15 04:10:52;;;;;;;3.10;2.80;;;4.90;70.70;;;4.06;54.33;94204.91;5065628;28;20215;-80
2021/03/15 04:13:25;;;;;;;2.55;2.35;;;4.90;70.70;;;4.05;54.31;94210.25;5051233;28;20252;-81
2021/03/15 04:15:53;;;;;;;3.45;2.70;;;4.90;70.70;;;4.05;54.44;94205.06;5036093;28;20251;-79
2021/03/15 04:18:25;;;;;;;2.78;2.45;;;4.90;70.70;;;4.08;54.22;94199.56;5049104;28;20199;-79
2021/03/15 04:20:59;;;;;;;3.05;2.78;;;4.90;70.70;;;4.06;54.46;94204.09;5050542;28;20247;-79
2021/03/15 04:23:38;;;;;;;3.80;3.03;;;4.90;70.90;;;4.06;54.47;94198.91;5034170;28;20196;-78
2021/03/15 04:26:07;;;;;;;3.10;2.80;;;4.90;70.80;;;4.02;54.54;94195.84;5065072;28;20227;-80
2021/03/15 04:28:36;;;;;;;3.38;2.90;;;4.90;70.70;;;4.04;54.31;94196.50;5047742;28;20212;-80
2021/03/15 04:31:08;;;;;;;3.30;3.00;;;4.90;70.70;;;4.05;54.45;94202.47;5059529;28;20233;-80
2021/03/15 04:33:37;;;;;;;3.58;3.20;;;4.90;70.70;;;3.99;54.38;94194.41;5050881;28;20206;-79
2021/03/15 04:36:07;;;;;;;3.28;2.97;;;4.90;70.70;;;4.06;54.63;94207.50;5039119;28;20254;-80
2021/03/15 04:38:35;;;;;;;3.40;2.88;;;4.90;70.80;;;4.05;54.52;94203.28;5066503;28;20191;-80
2021/03/15 04:41:03;;;;;;;3.78;3.40;;;4.90;70.70;;;4.04;54.54;94208.63;5079341;28;20250;-78
2021/03/15 04:43:31;;;;;;;5.25;3.42;;;4.90;71.70;;;4.02;54.60;94208.81;5039819;28;20224;-80
2021/03/15 04:45:59;;;;;;;3.72;3.00;;;4.90;70.70;;;3.98;54.90;94205.75;5079884;28;20245;-79
2021/03/15 04:48:29;;;;;;;4.63;2.83;;;4.90;70.90;;;3.98;54.38;94203.16;5055615;28;20203;-80
2021/03/15 04:51:06;;;;;;;4.05;2.58;;;4.80;70.70;;;3.98;54.31;94210.94;5029878;28;20228;-79
2021/03/15 04:53:37;;;;;;;4.65;3.20;;;4.80;70.70;;;3.95;54.45;94205.28;5052521;28;20187;-80
2021/03/15 04:56:11;;;;;;;2.90;2.70;;;4.80;70.60;;;3.88;54.07;94214.69;5037741;28;20231;-81
2021/03/15 04:58:41;;;;;;;4.78;2.63;;;4.80;71.00;;;3.78;54.24;94199.34;5054239;28;20210;-79
2021/03/15 05:01:09;;;;;;;3.60;3.00;;;4.70;70.30;;;3.69;54.00;94201.94;5063408;28;20704;-79
2021/03/15 05:03:38;;;;;;;3.45;3.10;;;4.70;70.20;;;3.62;53.84;94211.38;5072291;28;20191;-80
2021/03/15 05:06:08;;;;;;;3.25;2.85;;;4.70;70.30;;;3.51;54.44;94203.94;5071596;28;20683;-81
2021/03/15 05:08:41;;;;;;;3.13;2.78;;;4.60;70.30;;;3.42;54.29;94205.75;5055931;28;20213;-80
2021/03/15 05:11:10;;;;;;;15.63;12.10;;;4.50;70.30;;;3.40;54.38;94212.09;5055734;28;20219;-80
2021/03/15 05:13:39;;;;;;;7.28;6.13;;;4.40;70.30;;;3.34;54.57;94216.13;5055428;28;20221;-81
2021/03/15 05:16:08;;;;;;;5.53;4.60;;;4.40;70.40;;;3.27;54.35;94212.56;5055736;28;20211;-80
2021/03/15 05:18:36;;;;;;;6.05;3.97;;;4.40;70.50;;;3.23;55.04;94212.09;5073942;28;20183;-79
2021/03/15 05:21:04;;;;;;;6.32;3.60;;;4.30;70.60;;;3.21;55.18;94208.88;5070414;28;20223;-80
2021/03/15 05:23:32;;;;;;;5.07;3.00;;;4.30;70.70;;;3.20;54.95;94212.44;5037478;28;20254;-80
2021/03/15 05:26:01;;;;;;;3.80;3.30;;;4.20;70.70;;;3.18;54.99;94204.00;5054120;28;20235;-80
2021/03/15 05:28:30;;;;;;;3.38;2.75;;;4.20;70.80;;;3.17;54.62;94212.75;5054221;28;20226;-81
2021/03/15 05:31:02;;;;;;;4.55;3.25;;;4.20;70.80;;;3.16;54.70;94208.53;5037333;28;20691;-80
2021/03/15 05:33:35;;;;;;;5.15;2.85;;;4.10;70.90;;;3.14;54.64;94210.50;5037443;28;20204;-80
2021/03/15 05:36:07;;;;;;;3.10;2.80;;;4.10;70.90;;;3.12;54.41;94208.03;5037284;28;20216;-79
2021/03/15 05:38:34;;;;;;;5.80;2.88;;;4.10;70.70;;;3.07;54.29;94205.16;5053724;28;20199;-80
2021/03/15 05:41:03;;;;;;;3.65;3.00;;;4.10;70.70;;;3.06;54.43;94203.53;5037141;28;20214;-79
2021/03/15 05:44:41;;;;;;;3.83;2.95;;;4.10;70.70;;;2.99;54.58;94207.72;5053074;28;20203;-80
2021/03/15 05:47:26;;;;;;;4.60;2.65;;;4.00;71.00;;;2.93;54.61;94206.63;5054654;28;20231;-81
2021/03/15 05:50:33;;;;;;;4.00;2.90;;;4.00;71.00;;;2.88;54.37;94211.44;5055146;28;20224;-80
2021/03/15 05:53:13;;;;;;;2.47;2.28;;;3.90;71.10;;;2.85;54.50;94207.41;5073245;28;20191;-80
2021/03/15 05:56:27;;;;;;;3.20;2.90;;;3.90;71.10;;;2.82;54.55;94205.16;5073423;28;20195;-79
2021/03/15 05:58:57;;;;;;;3.47;3.10;;;3.80;71.10;;;2.83;54.91;94213.72;5081189;28;20248;-80
2021/03/15 06:01:48;;;;;;;4.18;3.08;;;3.80;71.00;;;2.83;54.67;94205.94;5056636;28;20636;-80
2021/03/15 06:04:44;;;;;;;4.25;3.00;;;3.80;71.30;;;2.86;55.28;94208.22;5073428;28;20230;-80
2021/03/15 06:07:19;;;;;;;4.15;3.60;;;3.80;71.20;;;2.91;55.67;94198.19;5075696;28;20220;-79
2021/03/15 06:10:08;;;;;;;4.13;3.33;;;3.80;71.50;;;2.96;55.01;94195.13;5019268;28;20238;-79
2021/03/15 06:13:03;;;;;;;4.20;3.13;;;3.80;71.60;;;3.01;55.22;94196.22;5035594;28;20255;-80
2021/03/15 06:15:43;;;;;;;3.75;3.10;;;3.90;71.60;;;3.04;55.14;94200.31;5035591;28;20220;-79
2021/03/15 06:18:14;;;;;;;4.63;3.75;;;3.90;71.60;;;3.06;55.25;94200.13;5039198;28;20294;-81
2021/03/15 06:20:47;;;;;;;4.10;3.50;;;4.00;71.70;;;3.06;55.30;94194.94;5049831;28;20250;-79
2021/03/15 06:23:16;;;;;;;4.30;3.85;;;3.90;71.70;;;3.05;55.34;94199.31;5050986;28;20528;-79
2021/03/15 06:25:46;;;;;;;5.95;3.90;;;3.90;71.60;;;3.07;55.08;94207.72;5035169;28;20196;-79
2021/03/15 06:28:17;;;;;;;5.13;3.65;;;4.00;71.70;;;3.07;55.56;94204.34;5070351;28;20183;-79
2021/03/15 06:30:46;;;;;;;5.68;3.97;;;4.00;71.70;;;3.09;56.10;94208.38;5072000;28;20237;-78
2021/03/15 06:33:18;;;;;;;4.78;3.90;;;4.00;71.70;;;3.16;56.45;94208.53;5053777;28;20198;-78
2021/03/15 06:35:57;;;;;;;6.55;4.43;;;4.00;71.70;;;3.24;56.70;94203.34;5067135;28;20231;-79
2021/03/15 06:38:27;;;;;;;4.78;4.28;;;4.10;71.80;;;3.32;57.28;94202.50;5056293;28;20188;-79
2021/03/15 06:41:00;;;;;;;6.15;4.72;;;4.10;72.10;;;3.43;56.63;94199.59;5054747;28;20215;-79
2021/03/15 06:43:27;;;;;;;4.60;4.10;;;4.10;72.10;;;3.55;56.93;94214.78;5056057;28;20237;-80
2021/03/15 06:45:55;;;;;;;6.63;4.35;;;4.20;72.30;;;3.66;57.07;94207.47;5040037;28;20226;-79
2021/03/15 06:48:24;;;;;;;8.02;5.05;;;4.30;72.70;;;3.83;56.87;94203.06;5072282;28;20539;-81
2021/03/15 06:50:53;;;;;;;5.88;4.70;;;4.30;72.70;;;3.99;56.64;94197.00;5045887;28;20634;-80
2021/03/15 06:53:20;;;;;;;6.60;5.45;;;4.50;72.70;;;4.17;56.41;94201.13;5054967;28;20197;-78
2021/03/15 06:55:53;;;;;;;5.80;4.78;;;4.60;72.80;;;4.29;56.16;94198.97;5067367;28;20215;-80
2021/03/15 06:58:32;;;;;;;7.28;5.15;;;4.70;72.70;;;4.41;56.12;94189.78;5062598;28;20214;-80
2021/03/15 07:01:26;;;;;;;6.72;5.60;;;4.80;72.60;;;4.57;55.91;94195.88;5071832;28;20226;-80
2021/03/15 07:04:08;;;;;;;7.63;5.60;;;5.00;72.40;;;4.68;55.83;94190.28;5055385;28;20266;-79
2021/03/15 07:06:40;;;;;;;6.85;5.78;;;5.10;72.50;;;4.80;55.85;94193.28;5064524;28;20220;-80
2021/03/15 07:09:09;;;;;;;6.72;5.55;;;5.20;72.60;;;4.94;55.56;94195.13;5054883;28;20192;-81
2021/03/15 07:11:36;;;;;;;7.28;5.28;;;5.40;72.70;;;5.05;55.46;94203.47;5072335;28;20300;-80
2021/03/15 07:14:03;;;;;;;6.65;5.30;;;5.50;72.70;;;5.16;55.42;94199.66;5055186;28;20191;-79
2021/03/15 07:16:33;;;;;;;6.80;5.55;;;5.60;73.60;;;5.31;55.00;94228.28;5055300;28;20215;-81
2021/03/15 07:19:21;;;;;;;7.57;6.25;;;5.70;72.50;;;5.37;54.81;94209.38;5055359;28;20205;-80
2021/03/15 07:21:47;;;;;;;6.60;5.82;;;5.80;72.20;;;5.48;54.28;94201.16;5071383;28;20685;-80
2021/03/15 07:24:14;;;;;;;7.32;5.88;;;5.90;72.30;;;5.63;54.37;94195.97;5054631;28;20786;-80
2021/03/15 07:26:46;;;;;;;7.10;6.30;;;6.00;72.10;;;5.75;54.48;94199.72;5071812;28;20219;-81
2021/03/15 07:29:17;;;;;;;7.05;5.93;;;6.10;72.20;;;5.93;54.24;94198.53;5071960;28;20199;-81
2021/03/15 07:31:50;;;;;;;8.63;6.45;;;6.20;72.20;;;6.05;53.97;94204.13;5071731;28;20211;-81
2021/03/15 07:34:21;;;;;;;6.30;5.22;;;6.40;72.00;;;6.21;54.02;94200.53;5071714;28;20266;-82
2021/03/15 07:36:52;;;;;;;7.25;5.60;;;6.50;72.00;;;6.37;53.43;94197.72;5088083;28;20218;-80
2021/03/15 07:39:21;;;;;;;7.05;5.43;;;6.60;71.90;;;6.53;53.06;94203.69;5071888;28;20188;-81
2021/03/15 07:41:51;;;;;;;6.70;5.70;;;6.70;71.50;;;6.67;53.41;94202.03;5088521;28;20665;-81
2021/03/15 07:44:33;;;;;;;7.03;5.70;;;6.90;71.80;;;6.78;52.62;94201.53;5071569;28;20206;-80
2021/03/15 07:47:05;;;;;;;6.40;5.60;;;7.00;71.30;;;6.92;52.47;94193.84;5055167;28;20318;-81
2021/03/15 07:49:37;;;;;;;6.25;5.65;;;7.10;71.20;;;7.03;52.51;94193.34;5054913;28;20215;-81
2021/03/15 07:52:10;;;;;;;7.90;5.88;;;7.30;71.00;;;7.09;51.41;94207.44;5071134;28;20231;-81
2021/03/15 07:54:39;;;;;;;6.90;5.63;;;7.40;70.50;;;7.08;50.77;94195.38;5088142;28;20187;-82
2021/03/15 07:57:26;;;;;;;7.43;5.80;;;7.50;70.10;;;7.04;51.47;94190.56;5071777;28;20223;-81
2021/03/15 07:59:58;;;;;;;7.07;5.75;;;7.50;70.00;;;7.05;51.02;94191.34;5071542;28;20256;-81
2021/03/15 08:02:31;;;;;;;8.32;6.15;;;7.60;70.00;;;7.02;51.47;94184.72;5088236;28;20215;-81
2021/03/15 08:04:59;;;;;;;7.53;5.88;;;7.70;69.80;;;6.94;50.78;94178.84;5054550;28;20199;-81
2021/03/15 08:07:29;;;;;;;7.65;5.80;;;7.60;69.50;;;6.85;50.89;94181.56;5071040;28;20214;-81
2021/03/15 08:09:59;;;;;;;6.95;5.35;;;7.60;69.30;;;6.72;51.27;94189.25;5055122;28;20191;-82
2021/03/15 08:12:38;;;;;;;7.32;6.15;;;7.50;69.20;;;6.61;51.56;94193.16;5071435;28;20313;-80
2021/03/15 08:15:08;;;;;;;7.35;5.95;;;7.50;69.20;;;6.53;51.24;94169.81;5054545;28;20190;-81
2021/03/15 08:17:37;;;;;;;7.80;6.20;;;7.40;69.20;;;6.51;51.52;94172.59;5071114;28;20240;-81
2021/03/15 08:20:07;;;;;;;7.50;5.78;;;7.30;69.20;;;6.51;51.68;94171.81;5054712;28;20665;-81
2021/03/15 08:22:38;;;;;;;6.68;5.93;;;7.30;69.40;;;6.51;51.46;94167.41;5071001;28;20280;-81
2021/03/15 08:25:09;;;;;;;7.93;5.60;;;7.20;69.30;;;6.54;51.76;94177.47;5054211;28;20203;-80
2021/03/15 08:27:42;;;;;;;7.47;6.07;;;7.20;69.50;;;6.58;51.75;94167.47;5071019;28;20219;-81
2021/03/15 08:30:23;;;;;;;6.90;6.20;;;7.20;69.60;;;6.62;51.07;94162.72;5071228;28;20183;-80
2021/03/15 08:32:50;;;;;;;6.15;5.45;;;7.20;69.30;;;6.68;51.41;94149.72;5071072;28;20199;-81
2021/03/15 08:35:19;;;;;;;6.35;5.57;;;7.20;69.50;;;6.76;51.18;94151.38;5087714;28;20187;-80
2021/03/15 08:38:05;;;;;;;6.50;4.97;;;7.30;69.70;;;6.88;50.39;94154.31;5070757;28;20207;-81
2021/03/15 08:40:44;;;;;;;6.70;4.90;;;7.30;69.00;;;6.99;50.20;94147.78;5054990;28;20672;-81
2021/03/15 08:43:21;;;;;;;6.00;4.90;;;7.50;69.20;;;7.07;49.94;94141.63;5070802;28;20227;-81
2021/03/15 08:45:55;;;;;;;6.43;4.90;;;7.40;68.90;;;7.22;49.97;94144.94;5070854;28;20669;-81
2021/03/15 08:48:36;;;;;;;6.60;4.05;;;7.50;69.80;;;7.35;49.70;94145.03;5054678;28;20236;-81
2021/03/15 08:51:08;;;;;;;6.22;4.47;;;7.60;68.70;;;7.47;49.02;94145.31;5070821;28;20226;-80
2021/03/15 08:53:40;;;;;;;6.10;4.53;;;7.70;69.40;;;7.50;47.87;94141.53;5053825;28;20642;-80
2021/03/15 08:56:18;;;;;;;7.75;4.28;;;7.90;68.10;;;7.59;47.59;94142.16;5054377;28;20742;-82
2021/03/15 08:58:49;;;;;;;6.10;4.43;;;7.90;67.50;;;7.64;47.04;94138.00;5054497;28;20206;-82
2021/03/15 09:01:25;;;;;;;6.65;4.22;;;7.90;67.40;;;7.76;47.51;94124.38;5070907;28;20262;-80
2021/03/15 09:04:02;;;;;;;4.30;3.67;;;8.00;67.50;;;7.80;46.11;94130.81;5054117;28;20194;-81
2021/03/15 09:06:33;;;;;;;4.40;3.47;;;8.10;66.60;;;7.89;46.71;94131.50;5087430;28;20758;-82
2021/03/15 09:09:25;;;;;;;7.03;3.80;;;8.20;66.90;;;7.89;45.70;94131.50;5070691;28;20195;-81
2021/03/15 09:12:03;;;;;;;5.15;3.33;;;8.20;66.40;;;7.92;46.06;94134.53;5053884;28;20230;-81
2021/03/15 09:14:34;;;;;;;7.13;3.05;;;8.30;66.10;;;7.97;44.74;94134.72;5053969;28;20215;-80
2021/03/15 09:17:24;;;;;;;3.85;2.88;;;8.30;65.50;;;8.09;45.43;94129.75;5087277;28;20242;-80
2021/03/15 09:19:51;;;;;;;5.53;3.45;;;8.40;66.20;;;8.18;45.05;94123.34;5057808;28;20344;-81
2021/03/15 09:22:34;;;;;;;3.92;3.00;;;8.50;66.00;;;8.30;45.91;94120.97;5073932;28;20302;-81
2021/03/15 09:25:04;;;;;;;4.25;3.13;;;8.60;66.10;;;8.35;45.04;94115.16;5074995;28;20554;-80
2021/03/15 09:27:43;;;;;;;5.30;3.55;;;8.70;65.80;;;8.34;44.42;94126.63;5074188;28;20229;-81
2021/03/15 09:30:16;;;;;;;4.72;3.78;;;8.70;65.20;;;8.32;44.51;94124.22;5074263;28;20679;-81
2021/03/15 09:32:54;;;;;;;3.47;3.10;;;8.70;65.30;;;8.36;44.90;94111.56;5090923;28;20219;-81
2021/03/15 09:35:37;;;;;;;3.95;3.20;;;8.80;65.20;;;8.42;45.20;94115.16;5073848;28;20249;-81
2021/03/15 09:38:10;;;;;;;8.32;3.60;;;8.80;65.40;;;8.55;45.00;94112.59;5074352;28;20218;-80
2021/03/15 09:40:49;;;;;;;5.15;3.70;;;8.90;65.60;;;8.73;45.53;94114.66;5057318;28;20654;-81
2021/03/15 09:43:28;;;;;;;6.18;3.88;;;8.90;65.80;;;8.89;44.43;94110.84;5073500;28;20223;-81
2021/03/15 09:46:01;;;;;;;4.60;3.40;;;9.10;65.70;;;8.97;45.08;94099.34;5073963;28;20222;-81
2021/03/15 09:48:32;;;;;;;5.18;3.63;;;9.20;65.90;;;9.09;43.95;94110.84;5057760;28;20187;-81
2021/03/15 09:51:06;;;;;;;4.72;2.78;;;9.30;65.60;;;9.14;42.84;94112.81;5073701;28;20255;-81
2021/03/15 09:53:48;;;;;;;3.95;2.72;;;9.40;64.60;;;9.12;43.07;94107.81;5073517;28;20212;-81
2021/03/15 09:56:24;;;;;;;4.22;2.70;;;9.50;65.40;;;9.12;43.60;94113.03;5057428;28;20230;-81
2021/03/15 09:58:59;;;;;;;4.13;2.92;;;9.40;64.40;;;9.07;41.68;94102.38;5073731;28;20203;-81
2021/03/15 10:01:28;;;;;;;5.38;2.80;;;9.50;63.80;;;9.06;42.74;94106.00;5073422;28;20219;-81
2021/03/15 10:04:01;;;;;;;3.30;2.72;;;9.50;64.00;;;9.13;43.06;94103.41;5058297;28;20294;-81
2021/03/15 10:06:47;;;;;;;4.93;3.30;;;9.50;64.20;;;9.10;42.24;94101.97;5073819;28;20230;-81
2021/03/15 10:09:38;;;;;;;4.43;3.20;;;9.50;63.70;;;9.14;43.17;94107.59;5073915;28;20261;-80
2021/03/15 10:12:34;;;;;;;3.95;2.67;;;9.60;64.10;;;9.22;43.85;94104.78;5069291;28;20675;-82
2021/03/15 10:15:17;;;;;;;4.50;2.97;;;9.60;64.50;;;9.29;43.50;94094.31;5073294;28;20217;-80
2021/03/15 10:17:50;;;;;;;3.05;2.75;;;9.60;64.40;;;9.38;42.66;94098.31;5074061;28;20261;-81
2021/03/15 10:20:46;;;;;;;3.85;2.97;;;9.70;64.20;;;9.40;42.46;94091.06;5072924;28;20231;-81
2021/03/15 10:23:17;;;;;;;3.90;3.20;;;9.70;64.00;;;9.35;42.46;94096.13;5089374;28;20231;-82
2021/03/15 10:26:06;;;;;;;3.65;2.90;;;9.80;63.50;;;9.28;42.33;94085.66;5089690;28;20222;-82
2021/03/15 10:28:40;;;;;;;4.15;2.80;;;9.70;63.60;;;9.27;43.15;94078.00;5072856;28;20298;-81
2021/03/15 10:31:21;;;;;;;4.43;3.22;;;9.70;63.80;;;9.27;43.22;94089.25;5072961;28;20692;-81
2021/03/15 10:33:51;;;;;;;3.33;2.85;;;9.70;63.90;;;9.36;43.64;94078.59;5072672;28;20570;-81
2021/03/15 10:36:24;;;;;;;3.10;2.80;;;9.80;64.20;;;9.47;43.88;94072.72;5056791;28;20223;-81
2021/03/15 10:39:14;;;;;;;3.17;2.88;;;9.80;64.40;;;9.55;43.36;94074.31;5059340;28;20234;-81
2021/03/15 10:41:42;;;;;;;3.38;3.00;;;9.90;64.10;;;9.58;43.45;94073.91;5072812;28;20709;-81
2021/03/15 10:44:24;;;;;;;3.42;3.13;;;9.90;64.00;;;9.56;42.51;94078.56;5075006;28;20623;-81
2021/03/15 10:46:58;;;;;;;3.53;2.90;;;9.90;63.50;;;9.58;43.59;94073.91;5073470;28;20211;-81
2021/03/15 10:49:32;;;;;;;3.47;2.92;;;10.00;62.70;;;9.61;43.39;94070.88;5072794;28;20199;-82
2021/03/15 10:52:36;;;;;;;4.72;2.35;;;10.00;63.60;;;9.71;44.01;94062.59;5073029;28;20600;-81
2021/03/15 10:55:22;;;;;;;4.15;2.50;;;10.00;62.80;;;9.75;44.01;94064.59;5072415;28;20236;-81
2021/03/15 10:58:04;;;;;;;4.28;2.70;;;10.10;62.90;;;9.73;43.64;94052.72;5072342;28;20673;-81
2021/03/15 11:00:43;;;;;;;2.83;2.28;;;10.10;62.50;;;9.73;43.97;94053.50;5072326;28;20572;-81
2021/03/15 11:03:25;;;;;;;3.50;2.35;;;10.20;62.90;;;9.76;44.07;94047.06;5055799;28;20227;-81